sensor_id;sensor_type;location;lat;lon;timestamp;P1;durP1;ratioP1;P2;durP2;ratioP2
19798;SDS011;10059;59.850;10.454;2023-04-06T00:00:05;1.73;;;1.10;;
19798;SDS011;10059;59.850;10.454;2023-04-06T00:02:34;3.47;;;1.50;;
19798;SDS011;10059;59.850;10.454;2023-04-06T00:05:00;2.93;;;1.20;;
19798;SDS011;10059;59.850;10.454;2023-04-06T00:07:27;2.13;;;1.30;;
19798;SDS011;10059;59.850;10.454;2023-04-06T00:09:54;4.30;;;1.40;;
19798;SDS011;10059;59.850;10.454;2023-04-06T00:12:23;4.03;;;1.33;;
19798;SDS011;10059;59.850;10.454;2023-04-06T00:14:49;1.63;;;1.30;;
19798;SDS011;10059;59.850;10.454;2023-04-06T00:17:17;2.60;;;1.27;;
19798;SDS011;10059;59.850;10.454;2023-04-06T00:19:43;4.40;;;1.20;;
19798;SDS011;10059;59.850;10.454;2023-04-06T00:22:10;4.07;;;1.40;;
19798;SDS011;10059;59.850;10.454;2023-04-06T00:24:37;4.07;;;1.40;;
19798;SDS011;10059;59.850;10.454;2023-04-06T00:27:04;2.23;;;1.23;;
19798;SDS011;10059;59.850;10.454;2023-04-06T00:29:32;4.23;;;1.70;;
19798;SDS011;10059;59.850;10.454;2023-04-06T00:31:59;2.67;;;1.47;;
19798;SDS011;10059;59.850;10.454;2023-04-06T00:34:26;2.13;;;1.30;;
19798;SDS011;10059;59.850;10.454;2023-04-06T00:36:53;2.30;;;1.50;;
19798;SDS011;10059;59.850;10.454;2023-04-06T00:39:19;2.50;;;1.47;;
19798;SDS011;10059;59.850;10.454;2023-04-06T00:41:49;2.07;;;1.10;;
19798;SDS011;10059;59.850;10.454;2023-04-06T00:44:17;2.93;;;1.37;;
19798;SDS011;10059;59.850;10.454;2023-04-06T00:46:46;1.73;;;1.40;;
19798;SDS011;10059;59.850;10.454;2023-04-06T00:49:13;4.93;;;1.33;;
19798;SDS011;10059;59.850;10.454;2023-04-06T00:51:40;1.50;;;1.00;;
19798;SDS011;10059;59.850;10.454;2023-04-06T00:54:07;2.50;;;1.17;;
19798;SDS011;10059;59.850;10.454;2023-04-06T00:56:34;2.03;;;1.30;;
19798;SDS011;10059;59.850;10.454;2023-04-06T00:59:01;2.00;;;1.20;;
19798;SDS011;10059;59.850;10.454;2023-04-06T01:01:28;2.50;;;1.20;;
19798;SDS011;10059;59.850;10.454;2023-04-06T01:03:58;4.47;;;1.40;;
19798;SDS011;10059;59.850;10.454;2023-04-06T01:06:27;2.83;;;1.43;;
19798;SDS011;10059;59.850;10.454;2023-04-06T01:08:54;1.83;;;1.20;;
19798;SDS011;10059;59.850;10.454;2023-04-06T01:11:21;3.17;;;1.40;;
19798;SDS011;10059;59.850;10.454;2023-04-06T01:13:48;3.73;;;1.30;;
19798;SDS011;10059;59.850;10.454;2023-04-06T01:16:15;5.80;;;1.70;;
19798;SDS011;10059;59.850;10.454;2023-04-06T01:18:42;2.40;;;1.30;;
19798;SDS011;10059;59.850;10.454;2023-04-06T01:21:10;2.30;;;1.40;;
19798;SDS011;10059;59.850;10.454;2023-04-06T01:23:42;4.60;;;1.40;;
19798;SDS011;10059;59.850;10.454;2023-04-06T01:26:10;3.40;;;1.30;;
19798;SDS011;10059;59.850;10.454;2023-04-06T01:28:37;3.23;;;1.50;;
19798;SDS011;10059;59.850;10.454;2023-04-06T01:31:04;2.33;;;1.40;;
19798;SDS011;10059;59.850;10.454;2023-04-06T01:33:31;3.63;;;1.30;;
19798;SDS011;10059;59.850;10.454;2023-04-06T01:35:57;3.73;;;1.33;;
19798;SDS011;10059;59.850;10.454;2023-04-06T01:38:25;2.00;;;1.47;;
19798;SDS011;10059;59.850;10.454;2023-04-06T01:40:53;2.13;;;1.50;;
19798;SDS011;10059;59.850;10.454;2023-04-06T01:43:20;2.60;;;1.60;;
19798;SDS011;10059;59.850;10.454;2023-04-06T01:45:47;4.30;;;1.40;;
19798;SDS011;10059;59.850;10.454;2023-04-06T01:48:14;4.90;;;1.60;;
19798;SDS011;10059;59.850;10.454;2023-04-06T01:50:41;2.03;;;1.40;;
19798;SDS011;10059;59.850;10.454;2023-04-06T01:53:08;2.70;;;1.43;;
19798;SDS011;10059;59.850;10.454;2023-04-06T01:55:35;2.53;;;1.60;;
19798;SDS011;10059;59.850;10.454;2023-04-06T01:58:03;3.00;;;1.60;;
19798;SDS011;10059;59.850;10.454;2023-04-06T02:00:30;4.10;;;1.30;;
19798;SDS011;10059;59.850;10.454;2023-04-06T02:02:57;4.23;;;1.63;;
19798;SDS011;10059;59.850;10.454;2023-04-06T02:05:24;2.60;;;1.40;;
19798;SDS011;10059;59.850;10.454;2023-04-06T02:07:51;1.97;;;1.33;;
19798;SDS011;10059;59.850;10.454;2023-04-06T02:10:18;1.57;;;1.10;;
19798;SDS011;10059;59.850;10.454;2023-04-06T02:12:45;2.70;;;1.33;;
19798;SDS011;10059;59.850;10.454;2023-04-06T02:15:13;1.20;;;1.10;;
19798;SDS011;10059;59.850;10.454;2023-04-06T02:17:40;2.90;;;1.50;;
19798;SDS011;10059;59.850;10.454;2023-04-06T02:20:07;1.87;;;1.40;;
19798;SDS011;10059;59.850;10.454;2023-04-06T02:22:35;4.33;;;2.37;;
19798;SDS011;10059;59.850;10.454;2023-04-06T02:25:02;1.70;;;1.40;;
19798;SDS011;10059;59.850;10.454;2023-04-06T02:27:29;2.57;;;1.30;;
19798;SDS011;10059;59.850;10.454;2023-04-06T02:29:56;2.33;;;1.50;;
19798;SDS011;10059;59.850;10.454;2023-04-06T02:32:24;3.33;;;1.67;;
19798;SDS011;10059;59.850;10.454;2023-04-06T02:34:51;2.37;;;1.50;;
19798;SDS011;10059;59.850;10.454;2023-04-06T02:37:18;2.20;;;1.30;;
19798;SDS011;10059;59.850;10.454;2023-04-06T02:39:45;2.17;;;1.30;;
19798;SDS011;10059;59.850;10.454;2023-04-06T02:42:11;2.07;;;1.27;;
19798;SDS011;10059;59.850;10.454;2023-04-06T02:44:40;2.73;;;1.40;;
19798;SDS011;10059;59.850;10.454;2023-04-06T02:47:07;2.23;;;1.40;;
19798;SDS011;10059;59.850;10.454;2023-04-06T02:49:35;2.57;;;1.40;;
19798;SDS011;10059;59.850;10.454;2023-04-06T02:52:02;1.93;;;1.30;;
19798;SDS011;10059;59.850;10.454;2023-04-06T02:54:29;3.40;;;1.50;;
19798;SDS011;10059;59.850;10.454;2023-04-06T02:56:56;4.10;;;1.20;;
19798;SDS011;10059;59.850;10.454;2023-04-06T02:59:22;1.97;;;1.20;;
19798;SDS011;10059;59.850;10.454;2023-04-06T03:01:49;3.23;;;1.50;;
19798;SDS011;10059;59.850;10.454;2023-04-06T03:04:16;2.20;;;1.47;;
19798;SDS011;10059;59.850;10.454;2023-04-06T03:06:44;1.97;;;1.50;;
19798;SDS011;10059;59.850;10.454;2023-04-06T03:09:11;2.27;;;1.30;;
19798;SDS011;10059;59.850;10.454;2023-04-06T03:11:39;3.37;;;1.43;;
19798;SDS011;10059;59.850;10.454;2023-04-06T03:14:06;2.23;;;1.30;;
19798;SDS011;10059;59.850;10.454;2023-04-06T03:16:33;1.97;;;1.40;;
19798;SDS011;10059;59.850;10.454;2023-04-06T03:19:00;2.27;;;1.30;;
19798;SDS011;10059;59.850;10.454;2023-04-06T03:21:27;1.30;;;1.10;;
19798;SDS011;10059;59.850;10.454;2023-04-06T03:23:55;2.10;;;1.20;;
19798;SDS011;10059;59.850;10.454;2023-04-06T03:26:22;4.60;;;1.30;;
19798;SDS011;10059;59.850;10.454;2023-04-06T03:28:49;1.87;;;0.93;;
19798;SDS011;10059;59.850;10.454;2023-04-06T03:31:16;1.87;;;1.00;;
19798;SDS011;10059;59.850;10.454;2023-04-06T03:33:43;1.30;;;1.10;;
19798;SDS011;10059;59.850;10.454;2023-04-06T03:36:10;1.40;;;1.00;;
19798;SDS011;10059;59.850;10.454;2023-04-06T03:38:36;1.00;;;0.90;;
19798;SDS011;10059;59.850;10.454;2023-04-06T03:41:05;3.97;;;1.20;;
19798;SDS011;10059;59.850;10.454;2023-04-06T03:43:31;1.23;;;1.00;;
19798;SDS011;10059;59.850;10.454;2023-04-06T03:45:58;2.17;;;1.10;;
19798;SDS011;10059;59.850;10.454;2023-04-06T03:48:25;1.53;;;1.23;;
19798;SDS011;10059;59.850;10.454;2023-04-06T03:50:52;1.53;;;1.20;;
19798;SDS011;10059;59.850;10.454;2023-04-06T03:53:19;2.00;;;1.30;;
19798;SDS011;10059;59.850;10.454;2023-04-06T03:55:45;1.50;;;1.10;;
19798;SDS011;10059;59.850;10.454;2023-04-06T03:58:14;1.33;;;1.20;;
19798;SDS011;10059;59.850;10.454;2023-04-06T04:00:41;1.47;;;1.20;;
19798;SDS011;10059;59.850;10.454;2023-04-06T04:03:07;2.47;;;1.30;;
19798;SDS011;10059;59.850;10.454;2023-04-06T04:05:34;2.27;;;1.20;;
19798;SDS011;10059;59.850;10.454;2023-04-06T04:08:01;1.93;;;1.30;;
19798;SDS011;10059;59.850;10.454;2023-04-06T04:10:28;2.30;;;1.30;;
19798;SDS011;10059;59.850;10.454;2023-04-06T04:12:55;3.00;;;1.60;;
19798;SDS011;10059;59.850;10.454;2023-04-06T04:15:23;3.50;;;1.20;;
19798;SDS011;10059;59.850;10.454;2023-04-06T04:17:50;1.90;;;1.27;;
19798;SDS011;10059;59.850;10.454;2023-04-06T04:20:17;2.73;;;1.50;;
19798;SDS011;10059;59.850;10.454;2023-04-06T04:22:44;3.03;;;1.30;;
19798;SDS011;10059;59.850;10.454;2023-04-06T04:25:10;1.90;;;1.30;;
19798;SDS011;10059;59.850;10.454;2023-04-06T04:27:37;1.33;;;1.10;;
19798;SDS011;10059;59.850;10.454;2023-04-06T04:30:05;2.90;;;1.37;;
19798;SDS011;10059;59.850;10.454;2023-04-06T04:32:34;1.90;;;1.10;;
19798;SDS011;10059;59.850;10.454;2023-04-06T04:35:01;2.13;;;1.40;;
19798;SDS011;10059;59.850;10.454;2023-04-06T04:37:28;1.80;;;1.13;;
19798;SDS011;10059;59.850;10.454;2023-04-06T04:39:55;1.30;;;1.10;;
19798;SDS011;10059;59.850;10.454;2023-04-06T04:42:21;1.73;;;1.37;;
19798;SDS011;10059;59.850;10.454;2023-04-06T04:44:48;1.57;;;1.17;;
19798;SDS011;10059;59.850;10.454;2023-04-06T04:47:15;1.20;;;1.10;;
19798;SDS011;10059;59.850;10.454;2023-04-06T04:49:43;4.63;;;1.50;;
19798;SDS011;10059;59.850;10.454;2023-04-06T04:52:10;1.83;;;1.30;;
19798;SDS011;10059;59.850;10.454;2023-04-06T04:54:37;2.40;;;1.30;;
19798;SDS011;10059;59.850;10.454;2023-04-06T04:57:06;1.30;;;1.20;;
19798;SDS011;10059;59.850;10.454;2023-04-06T04:59:33;2.23;;;1.20;;
19798;SDS011;10059;59.850;10.454;2023-04-06T05:02:00;1.60;;;1.30;;
19798;SDS011;10059;59.850;10.454;2023-04-06T05:04:27;3.10;;;1.53;;
19798;SDS011;10059;59.850;10.454;2023-04-06T05:07:02;2.47;;;1.50;;
19798;SDS011;10059;59.850;10.454;2023-04-06T05:09:30;2.50;;;1.60;;
19798;SDS011;10059;59.850;10.454;2023-04-06T05:11:57;2.27;;;1.50;;
19798;SDS011;10059;59.850;10.454;2023-04-06T05:14:24;2.57;;;1.40;;
19798;SDS011;10059;59.850;10.454;2023-04-06T05:16:51;5.87;;;1.50;;
19798;SDS011;10059;59.850;10.454;2023-04-06T05:19:18;2.47;;;1.60;;
19798;SDS011;10059;59.850;10.454;2023-04-06T05:21:45;1.90;;;1.60;;
19798;SDS011;10059;59.850;10.454;2023-04-06T05:24:13;2.87;;;1.70;;
19798;SDS011;10059;59.850;10.454;2023-04-06T05:26:40;2.83;;;1.73;;
19798;SDS011;10059;59.850;10.454;2023-04-06T05:29:07;2.87;;;1.47;;
19798;SDS011;10059;59.850;10.454;2023-04-06T05:31:34;3.30;;;1.73;;
19798;SDS011;10059;59.850;10.454;2023-04-06T05:34:01;2.80;;;1.70;;
19798;SDS011;10059;59.850;10.454;2023-04-06T05:36:28;2.27;;;1.53;;
19798;SDS011;10059;59.850;10.454;2023-04-06T05:38:55;2.10;;;1.70;;
19798;SDS011;10059;59.850;10.454;2023-04-06T05:41:24;3.33;;;1.57;;
19798;SDS011;10059;59.850;10.454;2023-04-06T05:43:51;2.80;;;1.70;;
19798;SDS011;10059;59.850;10.454;2023-04-06T05:46:18;3.53;;;1.60;;
19798;SDS011;10059;59.850;10.454;2023-04-06T05:48:45;2.30;;;1.73;;
19798;SDS011;10059;59.850;10.454;2023-04-06T05:51:11;2.80;;;2.20;;
19798;SDS011;10059;59.850;10.454;2023-04-06T05:53:38;3.47;;;2.17;;
19798;SDS011;10059;59.850;10.454;2023-04-06T05:56:05;4.20;;;1.70;;
19798;SDS011;10059;59.850;10.454;2023-04-06T05:58:34;2.93;;;2.00;;
19798;SDS011;10059;59.850;10.454;2023-04-06T06:01:01;3.80;;;2.27;;
19798;SDS011;10059;59.850;10.454;2023-04-06T06:03:29;4.00;;;2.17;;
19798;SDS011;10059;59.850;10.454;2023-04-06T06:05:59;3.03;;;2.00;;
19798;SDS011;10059;59.850;10.454;2023-04-06T06:08:26;7.30;;;2.10;;
19798;SDS011;10059;59.850;10.454;2023-04-06T06:10:53;2.80;;;2.00;;
19798;SDS011;10059;59.850;10.454;2023-04-06T06:13:20;3.13;;;1.93;;
19798;SDS011;10059;59.850;10.454;2023-04-06T06:15:48;3.80;;;2.37;;
19798;SDS011;10059;59.850;10.454;2023-04-06T06:18:16;3.60;;;2.20;;
19798;SDS011;10059;59.850;10.454;2023-04-06T06:20:42;3.37;;;2.00;;
19798;SDS011;10059;59.850;10.454;2023-04-06T06:23:09;3.23;;;2.10;;
19798;SDS011;10059;59.850;10.454;2023-04-06T06:25:36;3.40;;;2.00;;
19798;SDS011;10059;59.850;10.454;2023-04-06T06:28:03;2.97;;;2.00;;
19798;SDS011;10059;59.850;10.454;2023-04-06T06:30:30;2.97;;;1.77;;
19798;SDS011;10059;59.850;10.454;2023-04-06T06:32:58;3.00;;;2.10;;
19798;SDS011;10059;59.850;10.454;2023-04-06T06:35:25;2.47;;;1.80;;
19798;SDS011;10059;59.850;10.454;2023-04-06T06:37:52;4.37;;;1.80;;
19798;SDS011;10059;59.850;10.454;2023-04-06T06:40:19;2.53;;;1.87;;
19798;SDS011;10059;59.850;10.454;2023-04-06T06:42:48;2.70;;;1.90;;
19798;SDS011;10059;59.850;10.454;2023-04-06T06:45:15;3.27;;;2.17;;
19798;SDS011;10059;59.850;10.454;2023-04-06T06:47:43;2.67;;;2.07;;
19798;SDS011;10059;59.850;10.454;2023-04-06T06:50:11;3.70;;;1.80;;
19798;SDS011;10059;59.850;10.454;2023-04-06T06:52:39;3.67;;;1.80;;
19798;SDS011;10059;59.850;10.454;2023-04-06T06:55:06;3.17;;;1.90;;
19798;SDS011;10059;59.850;10.454;2023-04-06T06:57:34;3.70;;;2.03;;
19798;SDS011;10059;59.850;10.454;2023-04-06T07:00:01;2.67;;;2.00;;
19798;SDS011;10059;59.850;10.454;2023-04-06T07:02:29;3.40;;;1.90;;
19798;SDS011;10059;59.850;10.454;2023-04-06T07:04:56;2.37;;;1.70;;
19798;SDS011;10059;59.850;10.454;2023-04-06T07:07:24;2.93;;;2.10;;
19798;SDS011;10059;59.850;10.454;2023-04-06T07:09:51;5.27;;;2.03;;
19798;SDS011;10059;59.850;10.454;2023-04-06T07:12:17;2.73;;;2.00;;
19798;SDS011;10059;59.850;10.454;2023-04-06T07:14:44;2.73;;;2.00;;
19798;SDS011;10059;59.850;10.454;2023-04-06T07:17:11;2.83;;;1.90;;
19798;SDS011;10059;59.850;10.454;2023-04-06T07:19:38;2.37;;;1.80;;
19798;SDS011;10059;59.850;10.454;2023-04-06T07:22:05;3.10;;;2.00;;
19798;SDS011;10059;59.850;10.454;2023-04-06T07:24:33;3.73;;;2.00;;
19798;SDS011;10059;59.850;10.454;2023-04-06T07:27:00;2.97;;;2.10;;
19798;SDS011;10059;59.850;10.454;2023-04-06T07:29:27;3.00;;;1.90;;
19798;SDS011;10059;59.850;10.454;2023-04-06T07:31:54;5.87;;;2.47;;
19798;SDS011;10059;59.850;10.454;2023-04-06T07:34:21;6.70;;;2.83;;
19798;SDS011;10059;59.850;10.454;2023-04-06T07:36:48;3.50;;;2.10;;
19798;SDS011;10059;59.850;10.454;2023-04-06T07:39:15;2.40;;;1.93;;
19798;SDS011;10059;59.850;10.454;2023-04-06T07:41:43;3.23;;;2.13;;
19798;SDS011;10059;59.850;10.454;2023-04-06T07:44:10;2.70;;;1.90;;
19798;SDS011;10059;59.850;10.454;2023-04-06T07:46:37;5.57;;;2.30;;
19798;SDS011;10059;59.850;10.454;2023-04-06T07:49:03;3.07;;;1.90;;
19798;SDS011;10059;59.850;10.454;2023-04-06T07:51:30;2.50;;;1.73;;
19798;SDS011;10059;59.850;10.454;2023-04-06T07:53:57;2.10;;;1.80;;
19798;SDS011;10059;59.850;10.454;2023-04-06T07:56:24;3.97;;;2.07;;
19798;SDS011;10059;59.850;10.454;2023-04-06T07:58:53;5.20;;;2.10;;
19798;SDS011;10059;59.850;10.454;2023-04-06T08:01:21;3.93;;;2.30;;
19798;SDS011;10059;59.850;10.454;2023-04-06T08:03:48;3.50;;;2.27;;
19798;SDS011;10059;59.850;10.454;2023-04-06T08:06:15;3.73;;;2.20;;
19798;SDS011;10059;59.850;10.454;2023-04-06T08:08:42;3.50;;;2.40;;
19798;SDS011;10059;59.850;10.454;2023-04-06T08:11:09;2.47;;;2.20;;
19798;SDS011;10059;59.850;10.454;2023-04-06T08:13:36;4.13;;;2.60;;
19798;SDS011;10059;59.850;10.454;2023-04-06T08:16:05;5.17;;;2.37;;
19798;SDS011;10059;59.850;10.454;2023-04-06T08:18:32;7.50;;;2.67;;
19798;SDS011;10059;59.850;10.454;2023-04-06T08:20:58;5.33;;;2.90;;
19798;SDS011;10059;59.850;10.454;2023-04-06T08:23:26;5.40;;;3.30;;
19798;SDS011;10059;59.850;10.454;2023-04-06T08:25:52;6.40;;;3.43;;
19798;SDS011;10059;59.850;10.454;2023-04-06T08:28:20;3.50;;;2.70;;
19798;SDS011;10059;59.850;10.454;2023-04-06T08:30:48;5.17;;;2.80;;
19798;SDS011;10059;59.850;10.454;2023-04-06T08:33:16;4.53;;;2.67;;
19798;SDS011;10059;59.850;10.454;2023-04-06T08:35:43;3.80;;;2.50;;
19798;SDS011;10059;59.850;10.454;2023-04-06T08:38:10;3.27;;;2.30;;
19798;SDS011;10059;59.850;10.454;2023-04-06T08:40:37;5.50;;;3.13;;
19798;SDS011;10059;59.850;10.454;2023-04-06T08:43:05;5.53;;;2.40;;
19798;SDS011;10059;59.850;10.454;2023-04-06T08:45:35;3.47;;;2.23;;
19798;SDS011;10059;59.850;10.454;2023-04-06T08:48:02;3.67;;;2.87;;
19798;SDS011;10059;59.850;10.454;2023-04-06T08:50:31;4.27;;;2.00;;
19798;SDS011;10059;59.850;10.454;2023-04-06T08:53:00;4.03;;;2.43;;
19798;SDS011;10059;59.850;10.454;2023-04-06T08:55:27;4.20;;;2.70;;
19798;SDS011;10059;59.850;10.454;2023-04-06T08:57:54;4.10;;;2.93;;
19798;SDS011;10059;59.850;10.454;2023-04-06T09:00:22;3.27;;;2.57;;
19798;SDS011;10059;59.850;10.454;2023-04-06T09:02:50;4.13;;;2.50;;
19798;SDS011;10059;59.850;10.454;2023-04-06T09:05:20;5.07;;;2.20;;
19798;SDS011;10059;59.850;10.454;2023-04-06T09:07:51;4.40;;;2.50;;
19798;SDS011;10059;59.850;10.454;2023-04-06T09:10:18;3.40;;;2.37;;
19798;SDS011;10059;59.850;10.454;2023-04-06T09:12:45;4.43;;;2.80;;
19798;SDS011;10059;59.850;10.454;2023-04-06T09:15:21;3.50;;;2.40;;
19798;SDS011;10059;59.850;10.454;2023-04-06T09:17:48;4.97;;;2.20;;
19798;SDS011;10059;59.850;10.454;2023-04-06T09:20:21;3.93;;;2.20;;
19798;SDS011;10059;59.850;10.454;2023-04-06T09:22:52;2.43;;;1.90;;
19798;SDS011;10059;59.850;10.454;2023-04-06T09:25:19;5.23;;;2.43;;
19798;SDS011;10059;59.850;10.454;2023-04-06T09:27:48;6.33;;;2.90;;
19798;SDS011;10059;59.850;10.454;2023-04-06T09:30:23;3.10;;;2.50;;
19798;SDS011;10059;59.850;10.454;2023-04-06T09:32:52;7.10;;;2.47;;
19798;SDS011;10059;59.850;10.454;2023-04-06T09:35:20;2.87;;;2.20;;
19798;SDS011;10059;59.850;10.454;2023-04-06T09:37:48;3.33;;;2.40;;
19798;SDS011;10059;59.850;10.454;2023-04-06T09:40:18;4.03;;;2.33;;
19798;SDS011;10059;59.850;10.454;2023-04-06T09:42:46;3.80;;;2.67;;
19798;SDS011;10059;59.850;10.454;2023-04-06T09:45:15;3.00;;;2.50;;
19798;SDS011;10059;59.850;10.454;2023-04-06T09:47:42;3.47;;;2.50;;
19798;SDS011;10059;59.850;10.454;2023-04-06T09:50:10;5.73;;;2.80;;
19798;SDS011;10059;59.850;10.454;2023-04-06T09:52:39;3.77;;;2.50;;
19798;SDS011;10059;59.850;10.454;2023-04-06T09:55:08;4.23;;;2.40;;
19798;SDS011;10059;59.850;10.454;2023-04-06T09:57:41;3.70;;;2.70;;
19798;SDS011;10059;59.850;10.454;2023-04-06T10:00:12;5.43;;;2.90;;
19798;SDS011;10059;59.850;10.454;2023-04-06T10:02:45;5.00;;;2.97;;
19798;SDS011;10059;59.850;10.454;2023-04-06T10:05:17;4.40;;;3.20;;
19798;SDS011;10059;59.850;10.454;2023-04-06T10:07:48;4.70;;;2.50;;
19798;SDS011;10059;59.850;10.454;2023-04-06T10:10:19;3.30;;;2.00;;
19798;SDS011;10059;59.850;10.454;2023-04-06T10:12:48;2.77;;;2.07;;
19798;SDS011;10059;59.850;10.454;2023-04-06T10:15:15;3.30;;;2.23;;
19798;SDS011;10059;59.850;10.454;2023-04-06T10:17:42;2.90;;;2.50;;
19798;SDS011;10059;59.850;10.454;2023-04-06T10:20:10;5.13;;;2.47;;
19798;SDS011;10059;59.850;10.454;2023-04-06T10:22:43;3.60;;;2.43;;
19798;SDS011;10059;59.850;10.454;2023-04-06T10:25:25;4.23;;;2.50;;
19798;SDS011;10059;59.850;10.454;2023-04-06T10:28:00;3.87;;;2.27;;
19798;SDS011;10059;59.850;10.454;2023-04-06T10:30:27;3.40;;;2.43;;
19798;SDS011;10059;59.850;10.454;2023-04-06T10:32:54;3.50;;;2.37;;
19798;SDS011;10059;59.850;10.454;2023-04-06T10:35:21;3.53;;;2.63;;
19798;SDS011;10059;59.850;10.454;2023-04-06T10:37:52;3.63;;;2.43;;
19798;SDS011;10059;59.850;10.454;2023-04-06T10:40:26;4.13;;;2.63;;
19798;SDS011;10059;59.850;10.454;2023-04-06T10:42:54;3.93;;;2.37;;
19798;SDS011;10059;59.850;10.454;2023-04-06T10:45:24;4.93;;;2.60;;
19798;SDS011;10059;59.850;10.454;2023-04-06T10:47:52;4.50;;;2.53;;
19798;SDS011;10059;59.850;10.454;2023-04-06T10:50:20;4.70;;;2.90;;
19798;SDS011;10059;59.850;10.454;2023-04-06T10:52:47;5.67;;;2.97;;
19798;SDS011;10059;59.850;10.454;2023-04-06T10:55:25;4.07;;;2.70;;
19798;SDS011;10059;59.850;10.454;2023-04-06T10:57:53;4.70;;;2.50;;
19798;SDS011;10059;59.850;10.454;2023-04-06T11:00:20;4.07;;;3.00;;
19798;SDS011;10059;59.850;10.454;2023-04-06T11:02:49;4.03;;;2.80;;
19798;SDS011;10059;59.850;10.454;2023-04-06T11:05:16;3.93;;;2.70;;
19798;SDS011;10059;59.850;10.454;2023-04-06T11:07:44;4.83;;;2.87;;
19798;SDS011;10059;59.850;10.454;2023-04-06T11:10:11;5.50;;;2.93;;
19798;SDS011;10059;59.850;10.454;2023-04-06T11:12:38;6.20;;;3.00;;
19798;SDS011;10059;59.850;10.454;2023-04-06T11:15:05;5.37;;;3.57;;
19798;SDS011;10059;59.850;10.454;2023-04-06T11:17:33;18.23;;;9.20;;
19798;SDS011;10059;59.850;10.454;2023-04-06T11:20:03;12.73;;;6.47;;
19798;SDS011;10059;59.850;10.454;2023-04-06T11:22:35;4.43;;;2.87;;
19798;SDS011;10059;59.850;10.454;2023-04-06T11:25:05;6.43;;;2.80;;
19798;SDS011;10059;59.850;10.454;2023-04-06T11:27:33;5.93;;;3.23;;
19798;SDS011;10059;59.850;10.454;2023-04-06T11:30:00;6.03;;;2.90;;
19798;SDS011;10059;59.850;10.454;2023-04-06T11:32:28;4.73;;;2.60;;
19798;SDS011;10059;59.850;10.454;2023-04-06T11:34:57;3.43;;;2.67;;
19798;SDS011;10059;59.850;10.454;2023-04-06T11:37:26;4.53;;;2.73;;
19798;SDS011;10059;59.850;10.454;2023-04-06T11:39:54;6.37;;;3.40;;
19798;SDS011;10059;59.850;10.454;2023-04-06T11:42:22;4.57;;;2.90;;
19798;SDS011;10059;59.850;10.454;2023-04-06T11:44:50;5.07;;;3.00;;
19798;SDS011;10059;59.850;10.454;2023-04-06T11:47:18;4.97;;;2.70;;
19798;SDS011;10059;59.850;10.454;2023-04-06T11:49:47;4.90;;;3.10;;
19798;SDS011;10059;59.850;10.454;2023-04-06T11:52:15;4.10;;;2.70;;
19798;SDS011;10059;59.850;10.454;2023-04-06T11:54:45;4.80;;;2.80;;
19798;SDS011;10059;59.850;10.454;2023-04-06T11:57:13;3.23;;;2.50;;
19798;SDS011;10059;59.850;10.454;2023-04-06T11:59:40;4.13;;;2.77;;
19798;SDS011;10059;59.850;10.454;2023-04-06T12:02:06;3.87;;;2.40;;
19798;SDS011;10059;59.850;10.454;2023-04-06T12:04:33;5.10;;;3.03;;
19798;SDS011;10059;59.850;10.454;2023-04-06T12:07:00;4.80;;;3.10;;
19798;SDS011;10059;59.850;10.454;2023-04-06T12:09:27;6.57;;;3.30;;
19798;SDS011;10059;59.850;10.454;2023-04-06T12:11:56;5.77;;;3.10;;
19798;SDS011;10059;59.850;10.454;2023-04-06T12:14:23;5.23;;;3.00;;
19798;SDS011;10059;59.850;10.454;2023-04-06T12:16:50;5.87;;;2.87;;
19798;SDS011;10059;59.850;10.454;2023-04-06T12:19:17;4.07;;;2.90;;
19798;SDS011;10059;59.850;10.454;2023-04-06T12:21:44;3.87;;;2.97;;
19798;SDS011;10059;59.850;10.454;2023-04-06T12:24:11;3.90;;;2.60;;
19798;SDS011;10059;59.850;10.454;2023-04-06T12:26:38;4.23;;;3.03;;
19798;SDS011;10059;59.850;10.454;2023-04-06T12:29:07;5.43;;;2.93;;
19798;SDS011;10059;59.850;10.454;2023-04-06T12:31:35;4.53;;;2.70;;
19798;SDS011;10059;59.850;10.454;2023-04-06T12:34:03;4.90;;;2.50;;
19798;SDS011;10059;59.850;10.454;2023-04-06T12:36:31;3.13;;;2.30;;
19798;SDS011;10059;59.850;10.454;2023-04-06T12:38:57;6.07;;;2.90;;
19798;SDS011;10059;59.850;10.454;2023-04-06T12:41:25;3.63;;;2.43;;
19798;SDS011;10059;59.850;10.454;2023-04-06T12:43:52;2.50;;;1.77;;
19798;SDS011;10059;59.850;10.454;2023-04-06T12:46:20;2.37;;;1.93;;
19798;SDS011;10059;59.850;10.454;2023-04-06T12:48:47;3.87;;;2.27;;
19798;SDS011;10059;59.850;10.454;2023-04-06T12:51:14;3.57;;;2.10;;
19798;SDS011;10059;59.850;10.454;2023-04-06T12:53:42;3.17;;;2.30;;
19798;SDS011;10059;59.850;10.454;2023-04-06T12:56:12;5.73;;;2.20;;
19798;SDS011;10059;59.850;10.454;2023-04-06T12:58:39;3.67;;;2.40;;
19798;SDS011;10059;59.850;10.454;2023-04-06T13:01:07;4.17;;;2.37;;
19798;SDS011;10059;59.850;10.454;2023-04-06T13:03:35;5.30;;;2.33;;
19798;SDS011;10059;59.850;10.454;2023-04-06T13:06:02;3.23;;;2.23;;
19798;SDS011;10059;59.850;10.454;2023-04-06T13:08:29;3.37;;;2.20;;
19798;SDS011;10059;59.850;10.454;2023-04-06T13:10:56;3.83;;;2.27;;
19798;SDS011;10059;59.850;10.454;2023-04-06T13:13:23;2.73;;;2.10;;
19798;SDS011;10059;59.850;10.454;2023-04-06T13:15:51;3.53;;;2.20;;
19798;SDS011;10059;59.850;10.454;2023-04-06T13:18:18;3.03;;;2.13;;
19798;SDS011;10059;59.850;10.454;2023-04-06T13:20:47;2.53;;;2.00;;
19798;SDS011;10059;59.850;10.454;2023-04-06T13:23:14;2.80;;;1.60;;
19798;SDS011;10059;59.850;10.454;2023-04-06T13:25:41;2.53;;;1.80;;
19798;SDS011;10059;59.850;10.454;2023-04-06T13:28:08;2.57;;;2.00;;
19798;SDS011;10059;59.850;10.454;2023-04-06T13:30:35;2.60;;;1.70;;
19798;SDS011;10059;59.850;10.454;2023-04-06T13:33:02;2.57;;;2.03;;
19798;SDS011;10059;59.850;10.454;2023-04-06T13:35:29;2.40;;;1.70;;
19798;SDS011;10059;59.850;10.454;2023-04-06T13:37:57;2.90;;;1.77;;
19798;SDS011;10059;59.850;10.454;2023-04-06T13:40:24;2.90;;;2.00;;
19798;SDS011;10059;59.850;10.454;2023-04-06T13:42:51;3.20;;;2.17;;
19798;SDS011;10059;59.850;10.454;2023-04-06T13:45:18;2.73;;;2.10;;
19798;SDS011;10059;59.850;10.454;2023-04-06T13:47:45;2.80;;;2.30;;
19798;SDS011;10059;59.850;10.454;2023-04-06T13:50:11;2.83;;;2.13;;
19798;SDS011;10059;59.850;10.454;2023-04-06T13:52:38;3.20;;;2.20;;
19798;SDS011;10059;59.850;10.454;2023-04-06T13:55:07;2.80;;;2.10;;
19798;SDS011;10059;59.850;10.454;2023-04-06T13:57:34;3.93;;;1.90;;
19798;SDS011;10059;59.850;10.454;2023-04-06T14:00:03;2.70;;;2.07;;
19798;SDS011;10059;59.850;10.454;2023-04-06T14:02:31;2.10;;;1.80;;
19798;SDS011;10059;59.850;10.454;2023-04-06T14:04:58;2.73;;;2.20;;
19798;SDS011;10059;59.850;10.454;2023-04-06T14:07:25;3.80;;;2.47;;
19798;SDS011;10059;59.850;10.454;2023-04-06T14:09:52;4.07;;;2.20;;
19798;SDS011;10059;59.850;10.454;2023-04-06T14:12:20;3.10;;;2.27;;
19798;SDS011;10059;59.850;10.454;2023-04-06T14:14:47;3.03;;;2.40;;
19798;SDS011;10059;59.850;10.454;2023-04-06T14:17:15;5.33;;;2.70;;
19798;SDS011;10059;59.850;10.454;2023-04-06T14:19:41;3.70;;;2.37;;
19798;SDS011;10059;59.850;10.454;2023-04-06T14:22:09;4.00;;;2.70;;
19798;SDS011;10059;59.850;10.454;2023-04-06T14:24:36;4.53;;;2.93;;
19798;SDS011;10059;59.850;10.454;2023-04-06T14:27:03;3.47;;;2.50;;
19798;SDS011;10059;59.850;10.454;2023-04-06T14:29:31;3.10;;;2.03;;
19798;SDS011;10059;59.850;10.454;2023-04-06T14:31:58;4.37;;;2.63;;
19798;SDS011;10059;59.850;10.454;2023-04-06T14:34:25;6.27;;;3.30;;